Portada
METAR-TAF:

METAR-TAF

Aeroports :

Belleville, Illinois, Estats Units d'Amèrica

latitud: 38-33N, longitud: 089-51W, altitud: 140 m

Observació

L'informe es va fer fa 48 minuts, a les 05:55 UTC
Vent calma
Temperatura 24°C
Humitat 83%
Pressió 1023 hPa
Visibilitat: 16.1 km
Cel clar

METAR: KBLV 200555Z AUTO 00000KT 10SM CLR 24/21 A3022 RMK AO2 SLP232 T02360205 10317 20232 403390224 51004

Hora: 01:43 (06:43 UTC)

Pronòstic

L'informe es va fer fa 6 hores i 43 minuts, a les 00:00 UTC
Pronòstic vàlid del 20 a les 00 UTC al 21 a les 06 UTC
Vent 9 kt del Sud
Visibilitat 10 km o més
Núvols disperses a una alçada de 14000 ft

TAF: KBLV 200000Z 2000/2106 18009KT 9999 SCT140 QNH3016INS TX32/2019Z TN20/2011Z

Observacions i pronòstics meteorològics de més de 4000 aeroports (METAR i TAF).

Les estacions disponibles són els punts grocs i vermells al mapa.

Posi el ratolí al punt desitjat per veure el nom de l'estació.

Feu clic per veure les observacions i els pronòstics meteorològics.

Per canviar el mapa: feu clic els botons verds amb una creu de color negre per apropar; al botó verd amb un guió per allunyar la imatge; o en les fletxes verdes per a mapes adjacents.


METAR-TAF: